Terminal Aerodrome Forecast
Issued by NWS

Current Version | Previous Version | Text Only | Print | Product List | Glossary On
Versions: 1 2 3 4 5 6 7 8 9 10 11 12 13 14 15 16 17 18 19 20 21 22 23 24 25 26
000
FTUS46 KSGX 252042 AAB
TAFSAN
TAF AMD
KSAN 252042Z 2521/2624 25010KT P6SM BKN025 BKN035
      TEMPO 2521/2601 SCT025 SCT035
     FM260300 21006KT P6SM OVC025
     FM260600 21006KT P6SM -DZ OVC030
     FM260900 21006KT P6SM -DZ OVC035
     FM261800 22006KT P6SM OVC040
     FM262000 26008KT P6SM SCT040=

USA.gov is the U.S. government's official web portal to all federal, state and local government web resources and services.